Time;durP1;ratioP1;P1;durP2;ratioP2;P2;SDS_P1;SDS_P2;PMS_P1;PMS_P2;Temp;Humidity;BMP_temperature;BMP_pressure;BME280_temperature;BME280_humidity;BME280_pressure;Samples;Min_cycle;Max_cycle;Signal;HPM_P1;HPM_P2
2024/01/18 00:00:13;;;;;;;22.13;15.40;;;;;;;-2.07;100.00;99168.75;5262153;28;19920;-70
2024/01/18 00:02:44;;;;;;;26.80;16.42;;;;;;;-2.10;100.00;99176.34;5261710;28;20120;-70
2024/01/18 00:05:16;;;;;;;22.67;15.63;;;;;;;-2.10;100.00;99172.09;5262107;28;20457;-70
2024/01/18 00:07:47;;;;;;;20.23;15.17;;;;;;;-2.11;100.00;99177.19;5260775;28;20029;-69
2024/01/18 00:10:23;;;;;;;20.90;15.70;;;;;;;-2.06;100.00;99176.41;5260137;28;20040;-70
2024/01/18 00:12:55;;;;;;;23.52;16.63;;;;;;;-2.11;100.00;99190.81;5261733;28;20037;-69
2024/01/18 00:15:26;;;;;;;19.20;14.70;;;;;;;-2.14;100.00;99195.91;5261585;28;20040;-70
2024/01/18 00:17:57;;;;;;;22.20;14.50;;;;;;;-2.12;100.00;99193.38;5261770;28;20028;-70
2024/01/18 00:20:29;;;;;;;22.03;15.30;;;;;;;-2.09;100.00;99201.91;5261136;28;20075;-70
2024/01/18 00:23:00;;;;;;;23.73;17.43;;;;;;;-2.09;100.00;99212.13;5261754;28;20056;-70
2024/01/18 00:25:31;;;;;;;19.53;15.40;;;;;;;-2.08;100.00;99216.38;5260448;28;20044;-70
2024/01/18 00:28:03;;;;;;;24.40;16.37;;;;;;;-2.10;100.00;99219.75;5251616;28;20022;-70
2024/01/18 00:30:35;;;;;;;22.40;15.90;;;;;;;-2.13;100.00;99214.59;5240799;28;20086;-70
2024/01/18 00:33:06;;;;;;;23.67;17.43;;;;;;;-2.14;100.00;99205.22;5239978;28;20098;-70
2024/01/18 00:35:37;;;;;;;22.80;15.30;;;;;;;-2.12;100.00;99209.53;5240875;28;20080;-70
2024/01/18 00:38:09;;;;;;;22.93;15.67;;;;;;;-2.10;100.00;99215.50;5240485;28;20041;-70
2024/01/18 00:40:41;;;;;;;23.23;15.23;;;;;;;-2.11;100.00;99207.81;5240859;28;20041;-70
2024/01/18 00:43:13;;;;;;;;;;;;;;;-2.08;100.00;99224.03;5241049;28;20040;-70
2024/01/18 00:45:44;;;;;;;21.65;15.32;;;;;;;-2.07;100.00;99210.44;5240277;28;19913;-70
2024/01/18 00:48:15;;;;;;;22.10;16.67;;;;;;;-2.09;100.00;99221.50;5240893;28;20037;-70
2024/01/18 00:50:47;;;;;;;20.57;15.47;;;;;;;-2.07;100.00;99215.53;5240244;28;20116;-70
2024/01/18 00:53:18;;;;;;;23.50;16.97;;;;;;;-2.07;100.00;99222.34;5240410;28;20396;-69
2024/01/18 00:55:50;;;;;;;19.47;15.53;;;;;;;-2.11;100.00;99238.47;5240395;28;20484;-70
2024/01/18 00:58:21;;;;;;;25.00;16.23;;;;;;;-2.11;100.00;99243.56;5241010;28;20381;-70
2024/01/18 01:00:52;;;;;;;28.50;18.37;;;;;;;-2.09;100.00;99241.91;5240866;28;20090;-70
2024/01/18 01:03:24;;;;;;;25.10;14.93;;;;;;;-2.09;100.00;99247.03;5240769;28;20049;-70
2024/01/18 01:05:55;;;;;;;24.00;15.90;;;;;;;-2.10;100.00;99245.28;5240580;28;20037;-70
2024/01/18 01:08:27;;;;;;;20.73;15.77;;;;;;;-2.13;100.00;99241.00;5240181;28;20034;-70
2024/01/18 01:11:02;;;;;;;21.10;14.40;;;;;;;-2.18;100.00;99244.34;5240473;28;20492;-70
2024/01/18 01:13:33;;;;;;;25.95;16.60;;;;;;;-2.24;100.00;99253.63;5240482;28;20030;-70
2024/01/18 01:16:05;;;;;;;23.20;15.60;;;;;;;-2.28;100.00;99244.19;5240415;28;20040;-69
2024/01/18 01:18:36;;;;;;;22.00;15.50;;;;;;;-2.30;100.00;99248.44;5240477;28;20033;-69
2024/01/18 01:21:08;;;;;;;23.40;16.23;;;;;;;-2.32;100.00;99247.53;5240047;28;20033;-70
2024/01/18 01:23:43;;;;;;;25.43;15.07;;;;;;;-2.29;100.00;99250.13;5239957;28;20095;-70
2024/01/18 01:26:15;;;;;;;20.60;15.10;;;;;;;-2.30;100.00;99263.75;5240362;28;20492;-70
2024/01/18 01:28:49;;;;;;;20.05;14.75;;;;;;;-2.32;100.00;99264.53;5240343;28;20119;-70
2024/01/18 01:31:20;;;;;;;22.45;15.60;;;;;;;-2.35;100.00;99260.28;5240220;28;20128;-70
2024/01/18 01:33:51;;;;;;;26.00;16.83;;;;;;;-2.39;100.00;99261.06;5239789;28;20072;-70
2024/01/18 01:36:23;;;;;;;24.00;15.23;;;;;;;-2.37;100.00;99272.13;5240314;28;20038;-69
2024/01/18 01:38:54;;;;;;;25.70;16.47;;;;;;;-2.42;100.00;99271.22;5240355;28;20042;-70
2024/01/18 01:41:25;;;;;;;22.43;16.57;;;;;;;-2.41;100.00;99276.34;5240324;28;20064;-70
2024/01/18 01:44:01;;;;;;;24.87;16.47;;;;;;;-2.43;100.00;99275.47;5240163;28;20475;-69
2024/01/18 01:46:32;;;;;;;24.58;16.80;;;;;;;-2.47;100.00;99278.78;5240235;28;20465;-70
2024/01/18 01:49:05;;;;;;;26.50;16.67;;;;;;;-2.48;100.00;99273.66;5238571;28;20036;-70
2024/01/18 01:51:42;;;;;;;23.70;16.95;;;;;;;-2.45;100.00;99277.09;5240175;28;20067;-70
2024/01/18 01:54:15;;;;;;;24.45;17.08;;;;;;;-2.49;100.00;99277.06;5240343;28;20385;-69
2024/01/18 01:56:51;;;;;;;22.77;15.95;;;;;;;-2.51;100.00;99278.72;5241563;28;20041;-69
2024/01/18 01:59:24;;;;;;;23.10;15.57;;;;;;;-2.52;100.00;99282.13;5243919;28;20036;-70
2024/01/18 02:01:56;;;;;;;24.10;17.00;;;;;;;-2.49;100.00;99280.47;5243854;28;20121;-70
2024/01/18 02:04:28;;;;;;;23.13;17.38;;;;;;;-2.51;100.00;99278.72;5243661;28;20120;-70
2024/01/18 02:07:00;;;;;;;23.35;17.30;;;;;;;-2.49;100.00;99290.69;5243684;28;20040;-70
2024/01/18 02:09:32;;;;;;;23.40;16.67;;;;;;;-2.53;100.00;99285.50;5243609;28;20109;-70
2024/01/18 02:12:07;;;;;;;20.08;15.70;;;;;;;-2.51;100.00;99283.81;5243473;28;20061;-70
2024/01/18 02:14:39;;;;;;;23.83;16.75;;;;;;;-2.51;100.00;99277.03;5243399;28;20083;-70
2024/01/18 02:17:10;;;;;;;24.10;16.13;;;;;;;-2.54;100.00;99279.53;5243467;28;20029;-70
2024/01/18 02:19:42;;;;;;;20.17;15.53;;;;;;;-2.49;100.00;99284.72;5243118;28;20437;-70
2024/01/18 02:22:16;;;;;;;21.20;15.80;;;;;;;-2.50;100.00;99272.78;5241903;28;20060;-70
2024/01/18 02:24:50;;;;;;;23.15;16.27;;;;;;;-2.47;100.00;99272.84;5243453;28;20021;-70
2024/01/18 02:27:23;;;;;;;22.70;16.73;;;;;;;-2.49;100.00;99279.63;5243318;28;20025;-70
2024/01/18 02:29:54;;;;;;;24.20;16.48;;;;;;;-2.50;100.00;99272.78;5243269;28;20491;-70
2024/01/18 02:32:25;;;;;;;23.00;16.60;;;;;;;-2.50;100.00;99280.44;5243220;28;20045;-70
2024/01/18 02:34:57;;;;;;;23.93;16.23;;;;;;;-2.50;100.00;99285.53;5243165;28;20056;-70
2024/01/18 02:37:29;;;;;;;21.20;16.40;;;;;;;-2.53;100.00;99282.94;5241895;28;20426;-70
2024/01/18 02:40:00;;;;;;;22.57;16.47;;;;;;;-2.52;100.00;99282.13;5243000;28;20033;-70
2024/01/18 02:42:32;;;;;;;26.27;16.60;;;;;;;-2.54;100.00;99286.31;5242856;28;20033;-70
2024/01/18 02:45:04;;;;;;;20.37;15.73;;;;;;;-2.49;100.00;99288.13;5241460;28;20437;-70
2024/01/18 02:47:36;;;;;;;21.73;15.55;;;;;;;-2.53;100.00;99295.69;5242762;28;20029;-70
2024/01/18 02:50:07;;;;;;;21.17;16.57;;;;;;;-2.50;100.00;99295.75;5242570;28;20108;-70
2024/01/18 02:52:39;;;;;;;23.03;16.07;;;;;;;-2.51;100.00;99300.00;5242768;28;20438;-70
2024/01/18 02:55:10;;;;;;;25.13;16.40;;;;;;;-2.53;100.00;99296.53;5242671;28;20057;-70
2024/01/18 02:57:42;;;;;;;24.37;16.63;;;;;;;-2.51;100.00;99294.91;5242438;28;20037;-70
2024/01/18 03:00:13;;;;;;;23.03;16.20;;;;;;;-2.52;100.00;99292.31;5242539;28;20389;-70
2024/01/18 03:02:45;;;;;;;19.60;16.00;;;;;;;-2.48;100.00;99301.72;5242452;28;20091;-70
2024/01/18 03:05:16;;;;;;;21.33;16.53;;;;;;;-2.53;100.00;99308.44;5242821;28;20185;-70
2024/01/18 03:07:47;;;;;;;20.93;15.77;;;;;;;-2.52;100.00;99310.19;5242420;28;20057;-70
2024/01/18 03:10:19;;;;;;;26.93;16.03;;;;;;;-2.52;100.00;99302.53;5242263;28;20025;-70
2024/01/18 03:12:50;;;;;;;28.20;17.33;;;;;;;-2.53;100.00;99300.81;5242303;28;20076;-70
2024/01/18 03:15:21;;;;;;;25.07;15.73;;;;;;;-2.55;100.00;99303.31;5242356;28;20033;-70
2024/01/18 03:17:53;;;;;;;23.83;16.90;;;;;;;-2.55;100.00;99302.47;5242287;28;20033;-70
2024/01/18 03:20:24;;;;;;;25.97;16.30;;;;;;;-2.54;100.00;99306.72;5241463;28;20035;-70
2024/01/18 03:22:56;;;;;;;22.17;17.10;;;;;;;-2.59;100.00;99322.00;5242282;28;20068;-70
2024/01/18 03:25:28;;;;;;;24.67;16.38;;;;;;;-2.59;100.00;99314.34;5242165;28;20104;-70
2024/01/18 03:27:59;;;;;;;24.47;18.13;;;;;;;-2.58;100.00;99309.25;5240918;28;20127;-70
2024/01/18 03:30:31;;;;;;;22.50;17.20;;;;;;;-2.61;100.00;99305.78;5241977;28;20372;-69
2024/01/18 03:33:02;;;;;;;22.83;17.27;;;;;;;-2.60;100.00;99317.72;5242393;28;20041;-69
2024/01/18 03:35:34;;;;;;;24.70;17.63;;;;;;;-2.62;100.00;99307.47;5242015;28;20060;-70
2024/01/18 03:38:06;;;;;;;25.30;17.07;;;;;;;-2.63;100.00;99315.94;5240801;28;20380;-70
2024/01/18 03:40:37;;;;;;;21.73;16.83;;;;;;;-2.66;100.00;99312.50;5241737;28;20033;-70
2024/01/18 03:43:09;;;;;;;25.30;19.10;;;;;;;-2.67;100.00;99310.75;5241602;28;20288;-69
2024/01/18 03:45:40;;;;;;;28.13;19.07;;;;;;;-2.67;100.00;99320.97;5241435;28;20065;-70
2024/01/18 03:48:11;;;;;;;26.50;17.67;;;;;;;-2.71;100.00;99327.72;5241571;28;20029;-70
2024/01/18 03:50:43;;;;;;;23.37;16.53;;;;;;;-2.69;100.00;99328.59;5240896;28;20060;-69
2024/01/18 03:53:14;;;;;;;23.03;17.40;;;;;;;-2.70;100.00;99334.56;5241445;28;20504;-69
2024/01/18 03:55:46;;;;;;;24.97;17.00;;;;;;;-2.73;100.00;99334.50;5241402;28;20095;-69
2024/01/18 03:58:18;;;;;;;23.80;16.83;;;;;;;-2.76;100.00;99344.63;5239995;28;20030;-70
2024/01/18 04:00:49;;;;;;;24.10;15.87;;;;;;;-2.77;100.00;99341.25;5241153;28;20115;-70
2024/01/18 04:03:21;;;;;;;26.93;16.37;;;;;;;-2.85;100.00;99342.78;5241286;28;20366;-70
2024/01/18 04:05:52;;;;;;;27.30;17.93;;;;;;;-2.90;100.00;99353.72;5241343;28;20041;-70
2024/01/18 04:08:24;;;;;;;23.60;16.10;;;;;;;-2.97;100.00;99348.50;5240044;28;20033;-69
2024/01/18 04:10:55;;;;;;;31.20;17.17;;;;;;;-3.06;100.00;99340.69;5240937;28;20052;-70
2024/01/18 04:13:26;;;;;;;23.33;15.80;;;;;;;-3.14;100.00;99343.13;5241220;28;20041;-70
2024/01/18 04:15:58;;;;;;;21.20;15.17;;;;;;;-3.22;100.00;99344.66;5240924;28;20037;-71
2024/01/18 04:18:29;;;;;;;22.83;16.27;;;;;;;-3.27;100.00;99348.78;5239448;28;20083;-71
2024/01/18 04:21:00;;;;;;;23.03;15.27;;;;;;;-3.35;100.00;99352.88;5238663;28;20393;-71
2024/01/18 04:23:32;;;;;;;25.87;16.90;;;;;;;-3.36;100.00;99351.16;5239460;28;20036;-71
2024/01/18 04:26:03;;;;;;;23.30;15.67;;;;;;;-3.43;100.00;99356.94;5241041;28;20488;-71
2024/01/18 04:28:35;;;;;;;23.27;15.30;;;;;;;-3.48;100.00;99349.22;5240990;28;20034;-69
2024/01/18 04:31:06;;;;;;;21.73;15.63;;;;;;;-3.54;100.00;99362.69;5240877;28;20021;-69
2024/01/18 04:33:37;;;;;;;22.50;15.87;;;;;;;-3.53;100.00;99366.94;5239453;28;20184;-71
2024/01/18 04:36:09;;;;;;;25.00;17.90;;;;;;;-3.56;100.00;99366.03;5241074;28;20373;-70
2024/01/18 04:38:40;;;;;;;20.57;15.77;;;;;;;-3.59;100.00;99364.28;5240685;28;20062;-70
2024/01/18 04:41:11;;;;;;;20.10;16.30;;;;;;;-3.60;100.00;99371.91;5240814;28;20026;-70
2024/01/18 04:43:43;;;;;;;24.47;17.03;;;;;;;-3.66;100.00;99373.47;5240676;28;20025;-70
2024/01/18 04:46:15;;;;;;;23.17;16.90;;;;;;;-3.72;100.00;99383.53;5240700;28;20038;-71
2024/01/18 04:48:46;;;;;;;21.73;15.37;;;;;;;-3.75;100.00;99391.09;5240785;28;20025;-70
2024/01/18 04:51:19;;;;;;;23.13;17.10;;;;;;;-3.80;100.00;99397.78;5240302;28;20524;-70
2024/01/18 04:53:50;;;;;;;20.80;15.68;;;;;;;-3.90;100.00;99398.38;5240707;28;20049;-70
2024/01/18 04:56:22;;;;;;;20.67;16.57;;;;;;;-3.97;100.00;99399.94;5240820;28;20025;-70
2024/01/18 04:58:53;;;;;;;24.50;17.20;;;;;;;-3.98;100.00;99410.94;5239467;28;20049;-70
2024/01/18 05:01:25;;;;;;;21.77;17.17;;;;;;;-4.04;100.00;99411.66;5240676;28;20167;-70
2024/01/18 05:03:56;;;;;;;24.13;16.20;;;;;;;-4.09;100.00;99410.69;5240664;28;20025;-70
2024/01/18 05:06:27;;;;;;;25.03;16.00;;;;;;;-4.16;100.00;99421.53;5240688;28;20056;-70
2024/01/18 05:08:59;;;;;;;26.17;17.50;;;;;;;-4.20;100.00;99424.84;5240583;28;20040;-69
2024/01/18 05:11:30;;;;;;;23.63;17.07;;;;;;;-4.23;100.00;99415.44;5240548;28;20034;-70
2024/01/18 05:14:01;;;;;;;22.63;17.20;;;;;;;-4.25;100.00;99418.75;5240339;28;20034;-69
2024/01/18 05:16:39;;;;;;;23.07;15.93;;;;;;;-4.30;100.00;99412.69;5240303;28;20369;-69
2024/01/18 05:19:11;;;;;;;20.95;16.02;;;;;;;-4.35;100.00;99414.28;5240545;28;20072;-70
2024/01/18 05:21:43;;;;;;;26.77;16.37;;;;;;;-4.38;100.00;99417.59;5240141;28;20080;-70
2024/01/18 05:24:14;;;;;;;28.08;17.85;;;;;;;-4.42;100.00;99419.19;5239180;28;20061;-70
2024/01/18 05:26:46;;;;;;;22.30;16.37;;;;;;;-4.49;100.00;99419.00;5240305;28;20505;-69
2024/01/18 05:29:17;;;;;;;23.57;16.47;;;;;;;-4.54;100.00;99425.66;5239210;28;20366;-69
2024/01/18 05:31:48;;;;;;;23.97;16.30;;;;;;;-4.56;100.00;99427.31;5242037;28;20030;-70
2024/01/18 05:34:20;;;;;;;21.93;16.60;;;;;;;-4.60;100.00;99432.31;5244266;28;20041;-69
2024/01/18 05:36:51;;;;;;;21.27;15.57;;;;;;;-4.63;100.00;99437.31;5243888;28;20037;-69
2024/01/18 05:39:25;;;;;;;22.47;17.17;;;;;;;-4.66;100.00;99449.09;5244268;28;20477;-70
2024/01/18 05:41:56;;;;;;;22.55;16.77;;;;;;;-4.70;100.00;99445.59;5244156;28;20044;-70
2024/01/18 05:44:28;;;;;;;23.80;15.70;;;;;;;-4.73;100.00;99452.25;5243909;28;20060;-70
2024/01/18 05:46:59;;;;;;;22.13;16.13;;;;;;;-4.79;100.00;99450.44;5244279;28;20492;-70
2024/01/18 05:49:31;;;;;;;19.33;15.17;;;;;;;-4.80;100.00;99454.66;5243555;28;20026;-70
2024/01/18 05:52:03;;;;;;;20.17;15.27;;;;;;;-4.79;100.00;99458.06;5244076;28;20030;-70
2024/01/18 05:54:34;;;;;;;23.13;16.77;;;;;;;-4.83;100.00;99466.41;5242842;28;20338;-70
2024/01/18 05:57:07;;;;;;;20.60;16.13;;;;;;;-4.83;100.00;99466.41;5243912;28;20034;-69
2024/01/18 05:59:38;;;;;;;25.48;16.92;;;;;;;-4.87;100.00;99469.69;5242645;28;20033;-70
2024/01/18 06:02:09;;;;;;;27.93;16.53;;;;;;;-4.89;100.00;99472.19;5243786;28;20040;-70
2024/01/18 06:04:41;;;;;;;24.63;16.90;;;;;;;-4.90;100.00;99480.63;5243805;28;20091;-70
2024/01/18 06:07:12;;;;;;;28.47;15.70;;;;;;;-4.91;100.00;99478.03;5263025;28;20029;-70
2024/01/18 06:09:44;;;;;;;24.00;16.73;;;;;;;-4.93;100.00;99480.53;5263310;28;20036;-70
2024/01/18 06:12:15;;;;;;;24.80;15.83;;;;;;;-4.98;100.00;99477.00;5264176;28;20139;-71
2024/01/18 06:14:47;;;;;;;21.97;16.10;;;;;;;-5.01;100.00;99487.09;5264866;28;20389;-71
2024/01/18 06:17:18;;;;;;;29.83;15.63;;;;;;;-4.98;100.00;99493.13;5263082;28;20449;-71
2024/01/18 06:19:49;;;;;;;24.40;16.97;;;;;;;-4.99;100.00;99501.56;5263834;28;20064;-70
2024/01/18 06:22:21;;;;;;;24.77;16.63;;;;;;;-5.02;100.00;99504.03;5264497;28;20025;-70
2024/01/18 06:24:54;;;;;;;23.23;16.38;;;;;;;-5.00;100.00;99511.69;5264399;28;20094;-70
2024/01/18 06:27:25;;;;;;;;;;;;;;;-5.07;100.00;99517.41;5263391;28;20120;-71
2024/01/18 06:29:57;;;;;;;23.60;15.15;;;;;;;-5.05;100.00;99521.72;5264292;28;19999;-71
2024/01/18 06:32:28;;;;;;;25.20;16.40;;;;;;;-5.03;100.00;99516.69;5264079;28;20484;-70
2024/01/18 06:35:00;;;;;;;25.57;16.47;;;;;;;-5.07;100.00;99522.47;5263896;28;20049;-71
2024/01/18 06:37:32;;;;;;;23.73;15.93;;;;;;;-5.05;100.00;99536.13;5263940;28;20056;-71
2024/01/18 06:40:04;;;;;;;21.50;15.87;;;;;;;-5.09;100.00;99524.97;5263803;28;20032;-71
2024/01/18 06:42:35;;;;;;;24.30;15.70;;;;;;;-5.07;100.00;99528.44;5262789;28;20290;-72
2024/01/18 06:45:08;;;;;;;23.13;15.57;;;;;;;-5.06;100.00;99539.47;5262506;28;20488;-71
2024/01/18 06:47:39;;;;;;;25.23;16.67;;;;;;;-5.17;100.00;99532.38;5263625;28;20423;-72
2024/01/18 06:50:13;;;;;;;22.17;15.47;;;;;;;-5.16;100.00;99534.09;5261751;28;20109;-72
2024/01/18 06:52:44;;;;;;;23.42;16.05;;;;;;;-5.19;100.00;99536.53;5263451;28;20381;-72
2024/01/18 06:55:17;;;;;;;23.13;15.00;;;;;;;-5.19;100.00;99544.16;5263185;28;20037;-71
2024/01/18 06:57:49;;;;;;;22.75;15.90;;;;;;;-5.22;100.00;99548.28;5263339;28;20479;-71
2024/01/18 07:00:24;;;;;;;22.65;14.77;;;;;;;-5.32;100.00;99552.22;5263311;28;20102;-71
2024/01/18 07:02:55;;;;;;;23.13;15.43;;;;;;;-5.36;100.00;99558.00;5263267;28;20472;-72
2024/01/18 07:05:27;;;;;;;23.23;14.43;;;;;;;-5.40;100.00;99561.28;5263033;28;20029;-71
2024/01/18 07:07:58;;;;;;;20.08;13.43;;;;;;;-5.40;100.00;99566.38;5263336;28;20025;-71
2024/01/18 07:10:30;;;;;;;20.00;14.90;;;;;;;-5.43;100.00;99567.13;5262932;28;20133;-71
2024/01/18 07:13:01;;;;;;;21.00;15.03;;;;;;;-5.47;100.00;99566.97;5263161;28;20037;-71
2024/01/18 07:15:34;;;;;;;22.92;14.48;;;;;;;-5.47;100.00;99570.41;5261866;28;20028;-72
2024/01/18 07:18:05;;;;;;;19.03;14.33;;;;;;;-5.51;100.00;99574.50;5262972;28;20032;-72
2024/01/18 07:20:36;;;;;;;22.67;13.57;;;;;;;-5.52;100.00;99577.88;5262604;28;20384;-73
2024/01/18 07:23:08;;;;;;;17.60;13.40;;;;;;;-5.51;100.00;99581.25;5262736;28;20097;-72
2024/01/18 07:25:39;;;;;;;19.37;13.73;;;;;;;-5.56;100.00;99581.09;5263060;28;20115;-72
2024/01/18 07:28:11;;;;;;;18.90;14.37;;;;;;;-5.52;100.00;99585.47;5262953;28;20052;-72
2024/01/18 07:30:42;;;;;;;18.30;12.73;;;;;;;-5.55;100.00;99594.69;5262913;28;20068;-71
2024/01/18 07:33:14;;;;;;;24.50;16.83;;;;;;;-5.48;100.00;99598.28;5262885;28;20510;-72
2024/01/18 07:35:45;;;;;;;22.90;14.70;;;;;;;-5.52;100.00;99603.25;5262223;28;20057;-72
2024/01/18 07:38:16;;;;;;;28.30;15.33;;;;;;;-5.53;100.00;99609.13;5262746;28;20040;-71
2024/01/18 07:40:48;;;;;;;25.83;17.27;;;;;;;-5.54;100.00;99604.88;5262897;28;20159;-71
2024/01/18 07:43:19;;;;;;;23.53;17.87;;;;;;;-5.48;100.00;99608.44;5262555;28;20032;-71
2024/01/18 07:45:51;;;;;;;21.43;15.77;;;;;;;-5.52;100.00;99615.09;5261298;28;20040;-71
2024/01/18 07:48:22;;;;;;;24.37;16.20;;;;;;;-5.50;100.00;99619.41;5262441;28;20392;-72
2024/01/18 07:50:53;;;;;;;22.00;14.77;;;;;;;-5.54;100.00;99619.25;5261840;28;20374;-72
2024/01/18 07:53:25;;;;;;;19.30;13.77;;;;;;;-5.63;100.00;99624.88;5261730;28;20040;-72
2024/01/18 07:55:56;;;;;;;24.07;15.10;;;;;;;-5.57;100.00;99640.34;5261945;28;20518;-72
2024/01/18 07:58:27;;;;;;;19.23;14.93;;;;;;;-5.48;100.00;99639.75;5262449;28;20120;-71
2024/01/18 08:00:59;;;;;;;24.57;16.37;;;;;;;-5.48;100.00;99646.53;5262068;28;20103;-71
2024/01/18 08:03:30;;;;;;;21.37;14.77;;;;;;;-5.40;100.00;99655.25;5262050;28;20029;-72
2024/01/18 08:06:02;;;;;;;23.90;16.20;;;;;;;-5.34;100.00;99665.63;5262264;28;20491;-72
2024/01/18 08:08:33;;;;;;;25.75;16.00;;;;;;;-5.32;100.00;99664.84;5262413;28;20477;-72
2024/01/18 08:11:05;;;;;;;26.50;15.07;;;;;;;-5.27;100.00;99671.78;5262374;28;20384;-72
2024/01/18 08:13:36;;;;;;;24.23;16.57;;;;;;;-5.24;100.00;99672.72;5262445;28;20477;-72
2024/01/18 08:16:08;;;;;;;25.57;15.07;;;;;;;-5.22;100.00;99670.25;5262320;28;20125;-72
2024/01/18 08:18:40;;;;;;;24.92;15.93;;;;;;;-5.15;100.00;99667.94;5262195;28;20468;-72
2024/01/18 08:21:11;;;;;;;23.87;15.63;;;;;;;-5.12;100.00;99677.34;5261788;28;20055;-72
2024/01/18 08:23:43;;;;;;;22.20;14.97;;;;;;;-5.03;100.00;99676.78;5262071;28;20102;-72
2024/01/18 08:26:15;;;;;;;23.20;15.40;;;;;;;-4.88;100.00;99682.34;5261663;28;20033;-72
2024/01/18 08:28:47;;;;;;;27.40;16.00;;;;;;;-4.77;100.00;99687.75;5261966;28;20380;-72
2024/01/18 08:31:18;;;;;;;22.33;16.10;;;;;;;-4.61;100.00;99691.66;5262200;28;20040;-72
2024/01/18 08:33:50;;;;;;;21.30;13.93;;;;;;;-4.51;100.00;99696.19;5261777;28;20441;-72
2024/01/18 08:36:21;;;;;;;21.17;16.03;;;;;;;-4.40;100.00;99701.59;5261965;28;20055;-72
2024/01/18 08:38:54;;;;;;;20.53;15.57;;;;;;;-4.20;100.00;99704.75;5260551;28;20124;-72
2024/01/18 08:41:26;;;;;;;24.90;18.58;;;;;;;-4.06;100.00;99705.13;5261517;28;20029;-72
2024/01/18 08:43:58;;;;;;;27.30;15.07;;;;;;;-3.91;100.00;99714.88;5261840;28;20040;-72
2024/01/18 08:46:29;;;;;;;19.73;14.45;;;;;;;-3.89;100.00;99716.66;5261814;28;20025;-73
2024/01/18 08:49:01;;;;;;;22.40;14.30;;;;;;;-3.74;100.00;99716.22;5261659;28;20095;-72
2024/01/18 08:51:33;;;;;;;23.05;14.10;;;;;;;-3.55;100.00;99722.69;5261298;28;20041;-74
2024/01/18 08:54:06;;;;;;;23.70;13.50;;;;;;;-3.29;100.00;99732.72;5261523;28;20039;-73
2024/01/18 08:56:37;;;;;;;17.27;12.00;;;;;;;-3.15;100.00;99738.19;5261693;28;20041;-72
2024/01/18 08:59:08;;;;;;;24.50;12.57;;;;;;;-3.00;100.00;99733.44;5261997;28;20032;-72
2024/01/18 09:01:40;;;;;;;20.43;12.60;;;;;;;-2.84;100.00;99738.94;5262065;28;20090;-72
2024/01/18 09:04:11;;;;;;;14.97;11.03;;;;;;;-2.67;100.00;99744.44;5261383;28;20121;-72
2024/01/18 09:06:43;;;;;;;14.47;10.10;;;;;;;-2.57;100.00;99752.34;5264927;28;20467;-72
2024/01/18 09:09:16;;;;;;;14.43;10.00;;;;;;;-2.30;100.00;99758.94;5266074;28;20065;-71
2024/01/18 09:11:47;;;;;;;16.05;10.38;;;;;;;-2.13;100.00;99759.28;5265808;28;20090;-72
2024/01/18 09:14:18;;;;;;;15.90;8.83;;;;;;;-2.07;100.00;99763.69;5265875;28;20367;-73
2024/01/18 09:16:50;;;;;;;13.97;9.07;;;;;;;-1.86;100.00;99761.56;5264465;28;20033;-70
2024/01/18 09:19:21;;;;;;;14.50;8.60;;;;;;;-1.75;100.00;99773.72;5266087;28;20120;-72
2024/01/18 09:21:53;;;;;;;15.00;8.17;;;;;;;-1.33;100.00;99775.41;5266378;28;20056;-71
2024/01/18 09:24:24;;;;;;;14.37;9.60;;;;;;;-0.98;100.00;99777.75;5265933;28;20033;-71
2024/01/18 09:26:55;;;;;;;19.77;9.60;;;;;;;-0.97;100.00;99779.47;5266348;28;20099;-71
2024/01/18 09:29:27;;;;;;;12.47;8.07;;;;;;;-0.91;100.00;99794.91;5271098;28;20033;-73
2024/01/18 09:31:58;;;;;;;13.13;8.03;;;;;;;-0.68;100.00;99800.44;5269278;28;20072;-73
2024/01/18 09:34:29;;;;;;;10.97;6.83;;;;;;;-0.62;100.00;99808.22;5265461;28;20053;-70
2024/01/18 09:37:02;;;;;;;15.57;8.00;;;;;;;-0.45;100.00;99803.38;5264791;28;20094;-70
2024/01/18 09:39:33;;;;;;;10.57;6.43;;;;;;;-0.26;100.00;99816.47;5264822;28;20033;-70
2024/01/18 09:42:12;;;;;;;14.50;6.60;;;;;;;-0.18;100.00;99830.25;5263798;28;20339;-71
2024/01/18 09:44:48;;;;;;;19.73;7.72;;;;;;;0.10;100.00;99838.38;5265071;28;20029;-71
2024/01/18 09:47:19;;;;;;;16.65;8.70;;;;;;;0.50;100.00;99833.75;5264561;28;20044;-71
2024/01/18 09:49:52;;;;;;;18.67;9.07;;;;;;;0.44;100.00;99844.81;5264529;28;20029;-71
2024/01/18 09:52:24;;;;;;;14.77;7.68;;;;;;;0.47;100.00;99852.53;5265401;28;20029;-71
2024/01/18 09:54:55;;;;;;;10.43;6.10;;;;;;;0.63;99.33;99856.16;5279946;28;20033;-71
2024/01/18 09:57:32;;;;;;;12.63;5.53;;;;;;;0.73;97.71;99863.13;5264317;28;20524;-72
2024/01/18 10:00:08;;;;;;;12.95;6.53;;;;;;;0.95;98.62;99863.41;5264852;28;20362;-71
2024/01/18 10:02:39;;;;;;;11.23;4.82;;;;;;;1.32;96.18;99883.44;5264320;28;20029;-71
2024/01/18 10:05:15;;;;;;;11.23;7.10;;;;;;;1.60;93.92;99884.59;5264188;28;20465;-72
2024/01/18 10:07:46;;;;;;;18.60;10.00;;;;;;;1.20;91.91;99891.88;5264394;28;20405;-72
2024/01/18 10:10:18;;;;;;;9.93;6.23;;;;;;;1.48;93.25;99887.03;5264205;28;20121;-72
2024/01/18 10:12:50;;;;;;;9.73;4.00;;;;;;;1.52;90.50;99906.78;5264476;28;20033;-72
2024/01/18 10:15:33;;;;;;;6.83;3.80;;;;;;;1.85;92.05;99898.50;5263958;28;20025;-73
2024/01/18 10:18:06;;;;;;;5.47;3.92;;;;;;;2.28;90.56;99908.25;5263393;28;20681;-73
2024/01/18 10:20:37;;;;;;;7.70;3.92;;;;;;;2.62;87.72;99901.59;5263841;28;20037;-73
2024/01/18 10:23:10;;;;;;;8.77;3.97;;;;;;;3.37;89.66;99908.75;5264135;28;20460;-72
2024/01/18 10:25:44;;;;;;;;;;;;;;;3.72;90.71;99919.97;5264410;28;20048;-72
2024/01/18 10:28:15;;;;;;;8.48;3.53;;;;;;;3.07;81.35;99922.41;5264041;28;19971;-73
2024/01/18 10:30:52;;;;;;;8.57;3.97;;;;;;;3.14;80.86;99924.16;5264082;28;20063;-72
2024/01/18 10:33:23;;;;;;;7.88;3.15;;;;;;;3.21;81.00;99923.31;5264218;28;20037;-72
2024/01/18 10:35:55;;;;;;;8.87;4.10;;;;;;;3.10;78.90;99925.00;5264212;28;20110;-73
2024/01/18 10:38:30;;;;;;;7.53;3.40;;;;;;;3.50;79.81;99927.69;5264394;28;20086;-72
2024/01/18 10:41:02;;;;;;;8.63;3.83;;;;;;;3.68;79.28;99928.59;5264076;28;20092;-72
2024/01/18 10:43:34;;;;;;;6.97;3.25;;;;;;;4.13;76.41;99934.63;5262774;28;20036;-73
2024/01/18 10:46:06;;;;;;;9.75;3.55;;;;;;;4.21;76.58;99938.06;5264055;28;20464;-73
2024/01/18 10:48:37;;;;;;;5.97;3.30;;;;;;;4.64;73.86;99935.44;5263792;28;20037;-73
2024/01/18 10:51:09;;;;;;;6.10;2.87;;;;;;;4.83;73.21;99933.66;5263475;28;20029;-73
2024/01/18 10:53:41;;;;;;;7.07;3.27;;;;;;;5.15;71.82;99944.72;5262576;28;20033;-73
2024/01/18 10:56:13;;;;;;;7.97;3.85;;;;;;;5.76;71.46;99946.13;5263989;28;20124;-73
2024/01/18 10:58:44;;;;;;;5.13;3.10;;;;;;;5.77;68.64;99950.44;5263745;28;20112;-72
2024/01/18 11:01:17;;;;;;;6.07;3.60;;;;;;;6.25;67.70;99944.91;5262269;28;20024;-72
2024/01/18 11:03:48;;;;;;;7.00;3.13;;;;;;;5.92;64.04;99950.31;5263773;28;20452;-73
2024/01/18 11:06:20;;;;;;;7.70;3.37;;;;;;;5.84;63.33;99960.75;5266461;28;20033;-73
2024/01/18 11:08:51;;;;;;;7.90;3.63;;;;;;;5.78;65.12;99965.06;5263295;28;20036;-72
2024/01/18 11:11:23;;;;;;;7.40;3.00;;;;;;;6.55;64.65;99975.75;5270125;28;20061;-72
2024/01/18 11:13:55;;;;;;;7.30;3.58;;;;;;;6.15;60.42;99976.06;5274573;28;20059;-72
2024/01/18 11:16:27;;;;;;;7.63;3.00;;;;;;;6.30;60.49;99971.66;5265795;28;20037;-72
2024/01/18 11:19:00;;;;;;;6.20;2.88;;;;;;;6.46;59.17;99977.56;5263091;28;20032;-72
2024/01/18 11:21:42;;;;;;;7.05;3.22;;;;;;;6.40;59.09;99973.28;5262759;28;20043;-72
2024/01/18 11:24:14;;;;;;;6.00;3.47;;;;;;;5.99;58.06;99977.06;5262139;28;20025;-72
2024/01/18 11:26:45;;;;;;;6.63;3.20;;;;;;;6.25;58.26;99986.34;5262585;28;20025;-72
2024/01/18 11:29:18;;;;;;;8.47;3.23;;;;;;;6.81;57.88;99982.41;5263041;28;20033;-72
2024/01/18 11:31:50;;;;;;;;;;;;;;;8.14;61.84;99988.47;5262996;28;20036;-72
2024/01/18 11:34:30;;;;;;;8.37;4.37;;;;;;;8.30;54.42;99997.72;5261274;28;19972;-72